Time;durP1;ratioP1;P1;durP2;ratioP2;P2;SDS_P1;SDS_P2;PMS_P1;PMS_P2;Temp;Humidity;BMP_temperature;BMP_pressure;BME280_temperature;BME280_humidity;BME280_pressure;Samples;Min_cycle;Max_cycle;Signal;HPM_P1;HPM_P2
2022/03/08 00:02:04;;;;;;;9.23;5.63;;;-0.90;73.90;;;;;;5091375;28;20047;-72
2022/03/08 00:04:30;;;;;;;8.87;5.53;;;-0.90;73.80;;;;;;5082074;28;20563;-72
2022/03/08 00:06:56;;;;;;;10.90;6.07;;;-0.90;73.70;;;;;;5084934;28;20301;-71
2022/03/08 00:09:21;;;;;;;9.43;5.47;;;-1.00;73.80;;;;;;5107120;28;20105;-71
2022/03/08 00:11:47;;;;;;;10.03;5.53;;;-0.90;73.60;;;;;;5107717;28;21637;-71
2022/03/08 00:14:13;;;;;;;12.37;5.53;;;-0.90;73.60;;;;;;5075814;28;20038;-71
2022/03/08 00:16:39;;;;;;;13.97;6.23;;;-1.00;73.60;;;;;;5125460;27;20100;-71
2022/03/08 00:19:06;;;;;;;10.68;5.75;;;-1.00;73.60;;;;;;5129624;27;20395;-71
2022/03/08 00:21:31;;;;;;;9.88;6.05;;;-1.00;73.50;;;;;;5099503;28;20118;-71
2022/03/08 00:23:57;;;;;;;9.30;5.27;;;-1.10;73.60;;;;;;5091001;28;20131;-70
2022/03/08 00:26:23;;;;;;;11.70;6.17;;;-1.10;73.60;;;;;;5107491;27;20364;-70
2022/03/08 00:28:49;;;;;;;9.73;5.55;;;-1.10;73.50;;;;;;5113122;27;20046;-70
2022/03/08 00:31:15;;;;;;;9.87;5.80;;;-1.10;73.60;;;;;;5099661;27;20040;-70
2022/03/08 00:33:41;;;;;;;11.80;5.83;;;-1.20;73.60;;;;;;5092739;28;20039;-70
2022/03/08 00:36:08;;;;;;;10.95;5.85;;;-1.20;73.60;;;;;;5108546;28;20150;-70
2022/03/08 00:38:34;;;;;;;10.05;5.72;;;-1.20;73.60;;;;;;5099198;28;20158;-70
2022/03/08 00:41:00;;;;;;;10.85;5.85;;;-1.20;73.60;;;;;;5098511;28;20096;-70
2022/03/08 00:43:26;;;;;;;10.77;5.95;;;-1.30;73.60;;;;;;5075603;28;20043;-70
2022/03/08 00:45:53;;;;;;;10.52;6.10;;;-1.30;73.70;;;;;;5062647;28;20085;-69
2022/03/08 00:48:19;;;;;;;10.10;5.80;;;-1.30;73.60;;;;;;5093168;28;20032;-69
2022/03/08 00:50:44;;;;;;;10.60;5.90;;;-1.30;73.60;;;;;;5059620;28;20035;-70
2022/03/08 00:53:10;;;;;;;9.73;5.83;;;-1.30;73.50;;;;;;5075813;28;20102;-70
2022/03/08 00:55:36;;;;;;;10.70;5.97;;;-1.30;73.60;;;;;;5076537;28;20044;-69
2022/03/08 00:58:04;;;;;;;11.02;6.32;;;-1.30;73.50;;;;;;5090269;28;20118;-69
2022/03/08 01:00:32;;;;;;;10.43;5.97;;;-1.30;73.40;;;;;;5101412;28;20506;-69
2022/03/08 01:02:58;;;;;;;10.70;5.60;;;-1.30;73.40;;;;;;5093606;28;20048;-69
2022/03/08 01:05:24;;;;;;;10.77;5.80;;;-1.40;73.30;;;;;;5082552;28;20032;-69
2022/03/08 01:07:49;;;;;;;12.82;6.57;;;-1.40;73.50;;;;;;5096852;28;20035;-69
2022/03/08 01:10:18;;;;;;;10.90;5.93;;;-1.40;73.40;;;;;;5089412;28;20039;-69
2022/03/08 01:12:45;;;;;;;10.32;6.07;;;-1.50;73.40;;;;;;5124223;27;20058;-69
2022/03/08 01:15:12;;;;;;;11.80;6.75;;;-1.50;73.60;;;;;;5108221;28;20392;-69
2022/03/08 01:17:38;;;;;;;11.10;6.03;;;-1.50;73.50;;;;;;5088746;28;20103;-69
2022/03/08 01:20:06;;;;;;;12.70;6.53;;;-1.50;73.40;;;;;;5085143;28;20514;-69
2022/03/08 01:22:32;;;;;;;10.35;5.95;;;-1.50;73.50;;;;;;5075084;28;20131;-69
2022/03/08 01:24:57;;;;;;;9.83;5.87;;;-1.50;73.50;;;;;;5125157;27;20620;-69
2022/03/08 01:27:23;;;;;;;11.10;5.60;;;-1.60;73.60;;;;;;5124182;27;20047;-69
2022/03/08 01:29:49;;;;;;;11.00;6.17;;;-1.60;73.60;;;;;;5091357;28;20044;-70
2022/03/08 01:32:15;;;;;;;12.37;6.07;;;-1.60;73.50;;;;;;5089054;28;20787;-69
2022/03/08 01:34:41;;;;;;;11.68;6.20;;;-1.60;73.50;;;;;;5087949;28;20551;-69
2022/03/08 01:37:07;;;;;;;10.97;6.40;;;-1.70;73.50;;;;;;5074030;28;20180;-69
2022/03/08 01:39:32;;;;;;;13.13;6.30;;;-1.70;73.50;;;;;;5124769;27;20727;-69
2022/03/08 01:41:58;;;;;;;22.83;6.23;;;-1.70;73.60;;;;;;5093329;28;20035;-69
2022/03/08 01:44:24;;;;;;;14.68;7.32;;;-1.70;73.70;;;;;;5090784;28;20039;-69
2022/03/08 01:46:50;;;;;;;15.37;7.23;;;-1.80;73.70;;;;;;5091411;28;20617;-70
2022/03/08 01:49:16;;;;;;;10.87;6.33;;;-1.80;73.70;;;;;;5079281;28;20172;-69
2022/03/08 01:51:43;;;;;;;16.43;6.60;;;-1.80;73.80;;;;;;5073190;28;20035;-69
2022/03/08 01:54:09;;;;;;;11.45;6.32;;;-1.80;73.60;;;;;;5070658;28;20130;-69
2022/03/08 01:56:35;;;;;;;11.68;6.05;;;-1.80;73.80;;;;;;5108632;27;20784;-69
2022/03/08 01:59:02;;;;;;;11.02;6.03;;;-1.90;73.70;;;;;;5089440;28;20028;-69
2022/03/08 02:01:28;;;;;;;13.95;6.15;;;-1.90;73.80;;;;;;5105736;27;20032;-69
2022/03/08 02:03:54;;;;;;;10.80;5.90;;;-1.90;73.90;;;;;;5074516;28;20589;-69
2022/03/08 02:06:20;;;;;;;12.87;6.33;;;-1.90;74.00;;;;;;5099266;28;20145;-70
2022/03/08 02:08:46;;;;;;;10.85;5.95;;;-1.90;74.10;;;;;;5072327;28;20043;-69
2022/03/08 02:11:13;;;;;;;12.30;5.93;;;-1.90;74.00;;;;;;5104834;28;20053;-69
2022/03/08 02:13:39;;;;;;;11.77;6.97;;;-1.90;74.00;;;;;;5091655;28;20097;-69
2022/03/08 02:16:05;;;;;;;9.80;6.03;;;-1.90;74.00;;;;;;5107005;28;20031;-69
2022/03/08 02:18:32;;;;;;;10.05;5.93;;;-1.90;74.00;;;;;;5123511;27;20035;-69
2022/03/08 02:21:08;;;;;;;12.93;6.78;;;-1.90;73.90;;;;;;5094493;28;20106;-70
2022/03/08 02:23:34;;;;;;;13.52;7.80;;;-1.90;73.80;;;;;;5080433;28;20046;-69
2022/03/08 02:26:00;;;;;;;13.07;7.15;;;-1.90;73.80;;;;;;5095542;28;20040;-69
2022/03/08 02:28:27;;;;;;;11.93;6.75;;;-1.90;73.70;;;;;;5089223;28;20074;-69
2022/03/08 02:30:53;;;;;;;14.52;7.10;;;-1.90;73.70;;;;;;5105512;28;20043;-69
2022/03/08 02:33:19;;;;;;;12.57;6.93;;;-1.80;73.70;;;;;;5095243;28;20081;-69
2022/03/08 02:35:45;;;;;;;12.88;6.50;;;-1.80;73.80;;;;;;5105257;28;20043;-69
2022/03/08 02:38:11;;;;;;;14.50;6.57;;;-1.80;73.90;;;;;;5071561;28;20132;-69
2022/03/08 02:40:41;;;;;;;11.73;6.83;;;-1.80;73.90;;;;;;5079338;28;20043;-69
2022/03/08 02:43:09;;;;;;;14.52;7.13;;;-1.80;74.00;;;;;;5118324;27;20096;-69
2022/03/08 02:45:35;;;;;;;11.65;6.57;;;-1.80;74.00;;;;;;5079556;28;20036;-69
2022/03/08 02:48:01;;;;;;;13.35;6.93;;;-1.80;74.10;;;;;;5093822;28;20035;-69
2022/03/08 02:50:27;;;;;;;14.07;7.53;;;-1.80;74.10;;;;;;5093127;28;20039;-69
2022/03/08 02:52:54;;;;;;;14.52;7.22;;;-1.80;74.00;;;;;;5094402;28;20050;-69
2022/03/08 02:55:23;;;;;;;14.40;6.93;;;-1.80;74.20;;;;;;5084073;28;20518;-70
2022/03/08 02:57:49;;;;;;;15.10;7.20;;;-1.80;74.00;;;;;;5088520;27;20122;-69
2022/03/08 03:00:17;;;;;;;14.57;7.72;;;-1.80;74.10;;;;;;5067020;28;20245;-69
2022/03/08 03:02:43;;;;;;;15.25;7.53;;;-1.80;74.20;;;;;;5086315;28;20468;-69
2022/03/08 03:05:10;;;;;;;12.20;7.18;;;-1.80;74.10;;;;;;5122783;27;20039;-69
2022/03/08 03:07:36;;;;;;;15.70;7.70;;;-1.80;74.30;;;;;;5086100;28;20082;-69
2022/03/08 03:10:08;;;;;;;12.93;7.20;;;-1.80;74.30;;;;;;5104611;28;20065;-70
2022/03/08 03:12:33;;;;;;;11.98;6.80;;;-1.90;74.10;;;;;;5091141;28;20043;-69
2022/03/08 03:14:59;;;;;;;13.60;7.80;;;-1.90;74.10;;;;;;5093602;28;20555;-69
2022/03/08 03:17:25;;;;;;;13.53;7.53;;;-1.90;74.20;;;;;;5087411;28;20039;-69
2022/03/08 03:19:50;;;;;;;13.70;7.40;;;-1.90;74.60;;;;;;5073278;28;20035;-69
2022/03/08 03:22:16;;;;;;;12.60;7.57;;;-1.90;74.40;;;;;;5121228;27;20088;-69
2022/03/08 03:24:42;;;;;;;17.40;7.77;;;-1.90;74.50;;;;;;5105441;28;20070;-69
2022/03/08 03:27:07;;;;;;;15.03;7.43;;;-1.90;74.20;;;;;;5055523;28;20228;-69
2022/03/08 03:29:33;;;;;;;11.80;7.33;;;-1.90;74.40;;;;;;5105063;28;20039;-69
2022/03/08 03:31:59;;;;;;;13.57;7.20;;;-1.90;74.40;;;;;;5105058;28;20148;-70
2022/03/08 03:34:25;;;;;;;12.90;7.43;;;-1.90;74.40;;;;;;5088432;28;20492;-70
2022/03/08 03:36:51;;;;;;;17.15;9.45;;;-1.90;74.60;;;;;;5104960;28;20039;-69
2022/03/08 03:39:16;;;;;;;16.53;7.90;;;-1.90;74.70;;;;;;5106009;28;20701;-69
2022/03/08 03:41:42;;;;;;;15.63;8.47;;;-1.90;74.50;;;;;;5103973;28;20039;-69
2022/03/08 03:44:08;;;;;;;13.63;7.73;;;-1.90;74.60;;;;;;5072143;28;20128;-69
2022/03/08 03:46:33;;;;;;;16.17;8.40;;;-1.90;74.40;;;;;;5120467;28;20044;-69
2022/03/08 03:48:59;;;;;;;16.73;8.13;;;-1.90;74.50;;;;;;5105400;28;20036;-69
2022/03/08 03:51:25;;;;;;;14.83;7.63;;;-1.90;74.50;;;;;;5070728;28;20043;-69
2022/03/08 03:53:51;;;;;;;14.20;7.50;;;-1.90;74.40;;;;;;5087507;28;20074;-69
2022/03/08 03:56:16;;;;;;;17.77;8.80;;;-1.90;74.30;;;;;;5122564;28;20047;-69
2022/03/08 03:58:42;;;;;;;14.20;8.13;;;-2.00;74.50;;;;;;5081712;28;20042;-69
2022/03/08 04:01:08;;;;;;;16.83;8.13;;;-2.00;74.60;;;;;;5104518;28;20039;-69
2022/03/08 04:03:33;;;;;;;15.30;7.63;;;-2.00;74.60;;;;;;5096954;28;20043;-69
2022/03/08 04:05:59;;;;;;;14.87;8.43;;;-2.10;75.00;;;;;;5070243;28;20039;-69
2022/03/08 04:08:25;;;;;;;15.57;8.40;;;-2.10;74.90;;;;;;5073983;28;20123;-69
2022/03/08 04:10:51;;;;;;;16.87;9.27;;;-2.10;74.80;;;;;;5082560;28;20051;-69
2022/03/08 04:13:17;;;;;;;14.60;8.57;;;-2.10;74.70;;;;;;5090134;28;20379;-69
2022/03/08 04:15:44;;;;;;;14.32;7.93;;;-2.20;74.90;;;;;;5093564;28;20640;-70
2022/03/08 04:18:12;;;;;;;15.93;8.80;;;-2.20;74.80;;;;;;5078923;28;20645;-69
2022/03/08 04:20:38;;;;;;;17.35;8.63;;;-2.30;74.90;;;;;;5089471;28;20372;-69
2022/03/08 04:23:04;;;;;;;15.95;8.98;;;-2.40;75.10;;;;;;5094139;28;20032;-69
2022/03/08 04:25:30;;;;;;;16.70;9.83;;;-2.40;75.00;;;;;;5071391;28;20372;-69
2022/03/08 04:27:56;;;;;;;16.85;9.07;;;-2.50;75.10;;;;;;5067145;28;20116;-69
2022/03/08 04:30:22;;;;;;;17.23;9.33;;;-2.50;75.00;;;;;;5126833;27;20071;-69
2022/03/08 04:32:50;;;;;;;16.80;9.97;;;-2.50;75.20;;;;;;5079035;28;20427;-70
2022/03/08 04:35:17;;;;;;;17.30;9.35;;;-2.50;75.10;;;;;;5078554;28;20054;-70
2022/03/08 04:37:43;;;;;;;19.27;10.13;;;-2.60;75.60;;;;;;5080495;28;20043;-70
2022/03/08 04:40:09;;;;;;;20.00;9.77;;;-2.60;75.40;;;;;;5096978;27;20124;-70
2022/03/08 04:42:35;;;;;;;17.80;9.85;;;-2.60;75.50;;;;;;5093649;28;20032;-70
2022/03/08 04:45:01;;;;;;;18.50;10.60;;;-2.60;75.40;;;;;;5076196;28;20088;-70
2022/03/08 04:47:27;;;;;;;18.93;9.27;;;-2.60;75.40;;;;;;5090511;28;20566;-70
2022/03/08 04:49:52;;;;;;;17.90;10.43;;;-2.60;75.50;;;;;;5097934;28;20906;-70
2022/03/08 04:52:18;;;;;;;18.70;10.17;;;-2.60;75.50;;;;;;5095775;28;20055;-70
2022/03/08 04:54:44;;;;;;;16.77;9.50;;;-2.60;75.50;;;;;;5108989;27;20059;-70
2022/03/08 04:57:09;;;;;;;17.97;10.23;;;-2.60;75.50;;;;;;5111875;27;20047;-70
2022/03/08 04:59:35;;;;;;;18.60;10.10;;;-2.60;75.70;;;;;;5090929;27;20063;-70
2022/03/08 05:02:01;;;;;;;21.60;10.27;;;-2.60;75.70;;;;;;5124827;27;20580;-70
2022/03/08 05:04:26;;;;;;;17.13;9.50;;;-2.60;75.70;;;;;;5110303;27;20043;-70
2022/03/08 05:06:52;;;;;;;15.83;9.00;;;-2.60;75.70;;;;;;5090820;28;20040;-70
2022/03/08 05:09:18;;;;;;;18.73;9.83;;;-2.70;75.60;;;;;;5103223;27;20092;-70
2022/03/08 05:11:44;;;;;;;17.30;9.63;;;-2.70;75.70;;;;;;5122330;27;20076;-71
2022/03/08 05:14:10;;;;;;;20.35;10.45;;;-2.70;75.70;;;;;;5092042;28;20408;-73
2022/03/08 05:16:36;;;;;;;18.23;9.70;;;-2.70;75.80;;;;;;5091012;28;20035;-71
2022/03/08 05:19:01;;;;;;;16.83;9.63;;;-2.70;75.80;;;;;;5123819;27;20480;-71
2022/03/08 05:21:27;;;;;;;19.23;10.17;;;-2.70;75.90;;;;;;5096326;28;20042;-71
2022/03/08 05:23:53;;;;;;;19.37;10.50;;;-2.70;76.10;;;;;;5107242;28;20036;-71
2022/03/08 05:26:18;;;;;;;20.47;10.87;;;-2.70;76.00;;;;;;5124692;27;20035;-71
2022/03/08 05:28:46;;;;;;;20.80;11.07;;;-2.70;75.90;;;;;;5090102;28;20052;-71
2022/03/08 05:31:12;;;;;;;23.08;10.75;;;-2.70;75.80;;;;;;5076961;28;20039;-71
2022/03/08 05:33:38;;;;;;;22.67;11.93;;;-2.80;75.90;;;;;;5107305;28;20047;-71
2022/03/08 05:36:04;;;;;;;21.90;11.40;;;-2.80;75.80;;;;;;5125026;27;20031;-70
2022/03/08 05:38:30;;;;;;;18.83;11.20;;;-2.80;75.80;;;;;;5073987;28;20043;-70
2022/03/08 05:40:56;;;;;;;24.50;12.17;;;-2.80;76.00;;;;;;5079008;28;20289;-70
2022/03/08 05:43:22;;;;;;;21.90;12.10;;;-2.80;76.00;;;;;;5090187;28;20089;-70
2022/03/08 05:45:48;;;;;;;24.10;12.17;;;-2.80;76.10;;;;;;5105461;28;20044;-70
2022/03/08 05:48:13;;;;;;;25.63;12.53;;;-2.80;76.20;;;;;;5075918;28;20119;-70
2022/03/08 05:50:39;;;;;;;25.73;12.63;;;-2.70;76.10;;;;;;5077024;28;20122;-70
2022/03/08 05:53:05;;;;;;;21.80;11.70;;;-2.70;76.20;;;;;;5078337;28;20044;-71
2022/03/08 05:55:31;;;;;;;21.30;12.10;;;-2.70;76.10;;;;;;5080420;28;20582;-71
2022/03/08 05:57:56;;;;;;;25.53;11.80;;;-2.70;76.10;;;;;;5073336;28;20056;-71
2022/03/08 06:00:22;;;;;;;25.33;13.07;;;-2.70;76.20;;;;;;5102263;28;20400;-71
2022/03/08 06:02:48;;;;;;;24.07;12.30;;;-2.70;76.30;;;;;;5071420;28;20031;-71
2022/03/08 06:05:14;;;;;;;21.93;12.83;;;-2.70;76.20;;;;;;5078509;28;20484;-70
2022/03/08 06:07:39;;;;;;;23.37;12.70;;;-2.70;76.50;;;;;;5106059;27;20042;-70
2022/03/08 06:10:08;;;;;;;24.40;12.73;;;-2.70;76.50;;;;;;5073091;28;20510;-70
2022/03/08 06:12:34;;;;;;;21.98;12.02;;;-2.60;76.80;;;;;;5058810;27;20480;-70
2022/03/08 06:15:00;;;;;;;22.30;11.63;;;-2.60;76.40;;;;;;5093183;28;20377;-71
2022/03/08 06:17:26;;;;;;;21.80;12.00;;;-2.60;76.40;;;;;;5074853;27;20043;-71
2022/03/08 06:19:51;;;;;;;28.50;13.13;;;-2.60;76.50;;;;;;5062261;28;20032;-70
2022/03/08 06:22:17;;;;;;;25.93;13.43;;;-2.60;76.40;;;;;;5096894;27;20396;-70
2022/03/08 06:24:43;;;;;;;23.53;12.47;;;-2.60;76.40;;;;;;5105761;28;20254;-70
2022/03/08 06:27:09;;;;;;;24.50;13.93;;;-2.60;76.20;;;;;;5073959;28;20496;-70
2022/03/08 06:29:34;;;;;;;23.73;13.50;;;-2.60;76.30;;;;;;5078152;28;20133;-70
2022/03/08 06:32:00;;;;;;;22.27;13.40;;;-2.50;76.50;;;;;;5107200;28;20552;-70
2022/03/08 06:34:26;;;;;;;20.87;12.20;;;-2.50;76.60;;;;;;5096828;28;20051;-70
2022/03/08 06:36:51;;;;;;;21.80;13.37;;;-2.50;76.40;;;;;;5094049;27;20035;-70
2022/03/08 06:39:17;;;;;;;21.03;13.03;;;-2.50;76.40;;;;;;5090041;28;20557;-70
2022/03/08 06:41:43;;;;;;;23.67;13.90;;;-2.50;76.40;;;;;;5076284;28;20047;-70
2022/03/08 06:44:09;;;;;;;21.13;12.45;;;-2.40;76.30;;;;;;5092653;28;20063;-70
2022/03/08 06:46:36;;;;;;;23.10;12.90;;;-2.40;76.30;;;;;;5087463;28;20096;-71
2022/03/08 06:49:02;;;;;;;25.33;14.02;;;-2.30;76.40;;;;;;5106527;28;20043;-71
2022/03/08 06:51:28;;;;;;;22.63;12.65;;;-2.30;76.30;;;;;;5088061;28;20052;-71
2022/03/08 06:53:54;;;;;;;22.07;12.20;;;-2.20;76.30;;;;;;5078926;28;20054;-71
2022/03/08 06:56:20;;;;;;;20.13;12.57;;;-2.20;76.30;;;;;;5088537;28;20044;-71
2022/03/08 06:58:45;;;;;;;23.37;12.40;;;-2.10;76.20;;;;;;5063737;28;20503;-71
2022/03/08 07:01:11;;;;;;;24.43;12.90;;;-2.10;76.10;;;;;;5092998;28;20035;-71
2022/03/08 07:03:37;;;;;;;18.87;11.90;;;-2.00;76.20;;;;;;5080049;28;20594;-71
2022/03/08 07:06:05;;;;;;;21.50;12.93;;;-1.90;76.00;;;;;;5110208;27;20051;-71
2022/03/08 07:08:31;;;;;;;21.88;12.82;;;-1.80;76.10;;;;;;5075674;28;20527;-71
2022/03/08 07:10:57;;;;;;;26.33;14.25;;;-1.70;76.00;;;;;;5088218;28;20070;-71
2022/03/08 07:13:22;;;;;;;22.17;12.77;;;-1.60;76.10;;;;;;5093334;28;20036;-71
2022/03/08 07:15:48;;;;;;;23.27;12.20;;;-1.50;75.90;;;;;;5102236;27;20043;-71
2022/03/08 07:18:14;;;;;;;23.83;14.15;;;-1.40;75.70;;;;;;5076612;28;20035;-71
2022/03/08 07:20:40;;;;;;;21.77;13.03;;;-1.30;75.70;;;;;;5105876;28;20039;-71
2022/03/08 07:23:06;;;;;;;22.93;12.20;;;-1.20;75.50;;;;;;5080337;28;20051;-71
2022/03/08 07:25:32;;;;;;;20.93;12.43;;;-1.00;75.40;;;;;;5088833;28;20278;-71
2022/03/08 07:27:57;;;;;;;24.13;12.77;;;-0.90;75.20;;;;;;5123169;27;20042;-71
2022/03/08 07:30:23;;;;;;;23.83;12.87;;;-0.80;75.10;;;;;;5088165;28;20044;-71
2022/03/08 07:32:51;;;;;;;22.00;13.03;;;-0.70;74.90;;;;;;5097272;28;20655;-71
2022/03/08 07:35:17;;;;;;;22.30;12.60;;;-0.60;74.80;;;;;;5066238;28;20066;-71
2022/03/08 07:37:43;;;;;;;20.10;12.00;;;-0.50;74.50;;;;;;5088028;28;20036;-71
2022/03/08 07:40:09;;;;;;;20.83;12.20;;;-0.40;74.10;;;;;;5099435;28;20040;-71
2022/03/08 07:42:35;;;;;;;21.08;12.02;;;-0.30;74.00;;;;;;5084178;28;20039;-71
2022/03/08 07:45:01;;;;;;;18.87;12.70;;;-0.10;73.70;;;;;;5072682;28;20046;-71
2022/03/08 07:47:27;;;;;;;21.30;12.00;;;-0.10;73.80;;;;;;5088869;28;20039;-72
2022/03/08 07:49:53;;;;;;;21.63;12.03;;;0.00;73.70;;;;;;5105452;28;20463;-72
2022/03/08 07:52:19;;;;;;;19.03;12.33;;;0.10;73.70;;;;;;5094791;28;20050;-72
2022/03/08 07:54:44;;;;;;;16.37;10.53;;;0.20;73.50;;;;;;5090232;28;20052;-71
2022/03/08 07:57:10;;;;;;;16.93;11.13;;;0.30;73.50;;;;;;5075419;28;20555;-71
2022/03/08 07:59:36;;;;;;;22.13;12.57;;;0.40;73.20;;;;;;5100190;28;20056;-71
2022/03/08 08:02:02;;;;;;;19.70;11.57;;;0.60;73.30;;;;;;5087517;28;20043;-71
2022/03/08 08:04:29;;;;;;;19.25;12.15;;;0.70;73.00;;;;;;5085896;28;20051;-72
2022/03/08 08:06:55;;;;;;;17.52;10.90;;;0.80;72.50;;;;;;5069727;28;20152;-72
2022/03/08 08:09:20;;;;;;;16.30;11.23;;;0.90;72.30;;;;;;5096129;28;20040;-72
2022/03/08 08:11:46;;;;;;;19.57;11.50;;;1.00;72.30;;;;;;5076563;28;20040;-72
2022/03/08 08:14:12;;;;;;;22.80;12.23;;;1.10;72.20;;;;;;5107074;27;20035;-72
2022/03/08 08:16:38;;;;;;;18.37;11.47;;;1.10;71.80;;;;;;5090782;28;20039;-72
2022/03/08 08:19:03;;;;;;;15.80;10.57;;;1.20;71.70;;;;;;5074127;28;20122;-72
2022/03/08 08:21:29;;;;;;;16.50;10.47;;;1.30;71.60;;;;;;5091485;28;20093;-72
2022/03/08 08:23:55;;;;;;;19.10;10.23;;;1.40;70.70;;;;;;5081543;27;20043;-72
2022/03/08 08:26:20;;;;;;;16.70;10.37;;;1.50;70.50;;;;;;5102152;28;20446;-73
2022/03/08 08:28:47;;;;;;;15.03;10.07;;;1.70;69.70;;;;;;5126170;27;20115;-73
2022/03/08 08:31:12;;;;;;;17.08;10.60;;;1.80;69.20;;;;;;5092729;28;20055;-72
2022/03/08 08:33:38;;;;;;;15.10;9.60;;;1.90;69.00;;;;;;5076111;28;20032;-72
2022/03/08 08:36:04;;;;;;;20.70;10.23;;;2.00;68.80;;;;;;5106735;28;20047;-72
2022/03/08 08:38:30;;;;;;;17.40;10.00;;;2.20;69.10;;;;;;5104688;28;20111;-72
2022/03/08 08:40:55;;;;;;;14.70;9.70;;;2.30;68.80;;;;;;5081877;28;20277;-72
2022/03/08 08:43:21;;;;;;;13.27;9.40;;;2.40;67.50;;;;;;5075445;28;20058;-72
2022/03/08 08:45:51;;;;;;;14.27;9.80;;;2.50;67.00;;;;;;5074494;28;20637;-72
2022/03/08 08:48:18;;;;;;;15.75;9.63;;;2.60;66.30;;;;;;5125738;27;20069;-73
2022/03/08 08:50:44;;;;;;;13.68;9.30;;;2.80;66.40;;;;;;5088521;28;20470;-73
2022/03/08 08:53:09;;;;;;;14.57;9.33;;;2.90;64.80;;;;;;5068425;28;20059;-72
2022/03/08 08:55:37;;;;;;;12.20;9.27;;;3.00;65.20;;;;;;5102117;28;20048;-72
2022/03/08 08:58:04;;;;;;;14.32;9.70;;;3.10;64.90;;;;;;5085866;27;20054;-72
2022/03/08 09:00:30;;;;;;;13.57;8.80;;;3.30;64.20;;;;;;5082904;28;20408;-72
2022/03/08 09:02:56;;;;;;;12.43;9.32;;;3.40;64.40;;;;;;5082855;28;20131;-73
2022/03/08 09:05:22;;;;;;;12.32;8.43;;;3.60;63.40;;;;;;5069389;28;20070;-72
2022/03/08 09:07:47;;;;;;;12.43;8.67;;;3.70;63.50;;;;;;5090271;28;20335;-72
2022/03/08 09:10:15;;;;;;;12.63;8.63;;;3.80;62.50;;;;;;5105560;28;20488;-72
2022/03/08 09:12:43;;;;;;;12.57;8.40;;;3.90;63.10;;;;;;5089301;28;20043;-73
2022/03/08 09:15:09;;;;;;;12.85;8.80;;;4.00;63.30;;;;;;5081940;28;20819;-73
2022/03/08 09:17:37;;;;;;;11.98;7.93;;;4.10;63.00;;;;;;5105131;28;20039;-73
2022/03/08 09:20:07;;;;;;;11.30;7.88;;;4.30;61.40;;;;;;5078941;28;20397;-73
2022/03/08 09:22:33;;;;;;;10.23;7.63;;;4.40;60.80;;;;;;5085732;28;20035;-73
2022/03/08 09:24:58;;;;;;;11.40;7.33;;;4.50;60.30;;;;;;5072939;28;20066;-73
2022/03/08 09:27:24;;;;;;;9.37;7.23;;;4.60;60.30;;;;;;5088076;28;20158;-73
2022/03/08 09:29:50;;;;;;;10.00;7.57;;;4.70;59.40;;;;;;5088642;28;20047;-73
2022/03/08 09:32:16;;;;;;;9.15;7.10;;;4.80;58.50;;;;;;5105439;28;20523;-73
2022/03/08 09:34:42;;;;;;;12.02;7.10;;;4.90;58.00;;;;;;5103615;28;20496;-72
2022/03/08 09:37:08;;;;;;;9.73;7.20;;;5.00;58.30;;;;;;5131189;27;20043;-72
2022/03/08 09:39:35;;;;;;;10.73;6.80;;;5.20;57.60;;;;;;5088842;28;20039;-73
2022/03/08 09:42:02;;;;;;;7.93;6.65;;;5.30;55.20;;;;;;5124051;27;20043;-73
2022/03/08 09:44:29;;;;;;;9.93;7.40;;;5.40;55.60;;;;;;5073310;28;20050;-73
2022/03/08 09:46:55;;;;;;;10.15;6.18;;;5.50;55.80;;;;;;5120584;27;20075;-73
2022/03/08 09:49:20;;;;;;;10.03;6.77;;;5.60;54.40;;;;;;5079193;28;20136;-73
2022/03/08 09:51:46;;;;;;;8.73;6.20;;;5.70;53.40;;;;;;5106915;28;20510;-73
2022/03/08 09:54:12;;;;;;;8.38;5.88;;;5.80;53.80;;;;;;5096619;28;20064;-73
2022/03/08 09:56:38;;;;;;;7.95;5.93;;;5.90;53.70;;;;;;5108055;28;20047;-73
2022/03/08 09:59:04;;;;;;;8.77;6.40;;;5.90;51.80;;;;;;5109744;28;20399;-73
2022/03/08 10:01:30;;;;;;;7.53;6.10;;;6.00;52.40;;;;;;5079252;28;20278;-73
2022/03/08 10:03:56;;;;;;;7.82;5.72;;;6.10;52.10;;;;;;5092453;28;20289;-74
2022/03/08 10:06:22;;;;;;;8.00;6.40;;;6.20;51.90;;;;;;5104360;28;20414;-74
2022/03/08 10:08:48;;;;;;;8.00;5.83;;;6.20;52.70;;;;;;5078715;28;20044;-73
2022/03/08 10:11:14;;;;;;;10.13;6.10;;;6.30;51.20;;;;;;5092914;28;20036;-73
2022/03/08 10:13:45;;;;;;;8.50;6.40;;;6.40;50.90;;;;;;5074773;28;20100;-73
2022/03/08 10:16:26;;;;;;;8.65;5.97;;;6.50;51.10;;;;;;5108801;28;20066;-74
2022/03/08 10:19:02;;;;;;;6.65;5.30;;;6.50;51.50;;;;;;5101766;28;20047;-73
2022/03/08 10:21:33;;;;;;;7.57;5.47;;;6.60;48.60;;;;;;5097503;28;20051;-74
2022/03/08 10:24:05;;;;;;;7.15;5.38;;;6.70;48.90;;;;;;5091118;28;20510;-73
2022/03/08 10:26:42;;;;;;;6.60;4.75;;;6.80;47.30;;;;;;5100334;28;20119;-72
2022/03/08 10:29:08;;;;;;;6.28;5.28;;;6.90;47.80;;;;;;5088751;28;20050;-73
2022/03/08 10:31:34;;;;;;;8.37;5.50;;;6.90;45.60;;;;;;5057365;28;20500;-73
2022/03/08 10:34:05;;;;;;;8.30;6.10;;;6.90;47.30;;;;;;5103995;28;20035;-73
2022/03/08 10:36:32;;;;;;;8.20;5.20;;;7.00;48.20;;;;;;5100922;28;20046;-74
2022/03/08 10:39:08;;;;;;;7.22;4.90;;;7.10;47.30;;;;;;5123768;27;20039;-74
2022/03/08 10:41:48;;;;;;;7.55;5.28;;;7.20;46.60;;;;;;5090583;28;20090;-74
2022/03/08 10:44:15;;;;;;;6.88;5.47;;;7.30;46.80;;;;;;5124556;27;20499;-74
2022/03/08 10:46:41;;;;;;;6.50;5.80;;;7.30;45.70;;;;;;5107200;27;20043;-74
2022/03/08 10:49:13;;;;;;;8.00;5.63;;;7.40;46.00;;;;;;5086144;28;20396;-74
2022/03/08 10:51:39;;;;;;;7.20;5.88;;;7.40;46.80;;;;;;5060219;28;20496;-74
2022/03/08 10:54:15;;;;;;;8.00;5.90;;;7.50;47.90;;;;;;5070436;28;20036;-75
2022/03/08 10:56:43;;;;;;;8.02;5.70;;;7.60;47.20;;;;;;5124118;27;20054;-74
2022/03/08 10:59:11;;;;;;;8.02;5.38;;;7.70;46.40;;;;;;5089521;28;20393;-74
2022/03/08 11:01:41;;;;;;;9.75;5.97;;;7.70;46.80;;;;;;5090092;28;20126;-74
2022/03/08 11:04:17;;;;;;;10.65;5.95;;;7.80;46.30;;;;;;5106843;28;20132;-74
2022/03/08 11:06:44;;;;;;;7.10;5.38;;;7.80;46.80;;;;;;5093415;28;20080;-73
2022/03/08 11:09:10;;;;;;;8.15;6.00;;;7.90;47.60;;;;;;5075513;28;20061;-73
2022/03/08 11:11:37;;;;;;;7.93;5.72;;;8.00;46.50;;;;;;5073049;28;20039;-74
2022/03/08 11:14:03;;;;;;;6.95;5.30;;;8.00;44.90;;;;;;5089195;28;20050;-74
2022/03/08 11:16:32;;;;;;;7.90;5.88;;;8.10;46.20;;;;;;5087246;28;20039;-74
2022/03/08 11:18:59;;;;;;;6.90;5.50;;;8.10;45.90;;;;;;5101755;28;20040;-74
2022/03/08 11:21:26;;;;;;;8.93;5.85;;;8.20;46.40;;;;;;5087431;28;20055;-74
2022/03/08 11:23:52;;;;;;;7.75;5.45;;;8.30;44.90;;;;;;5069904;28;20039;-74
2022/03/08 11:26:19;;;;;;;7.90;5.32;;;8.30;45.00;;;;;;5082098;28;20047;-74
2022/03/08 11:28:46;;;;;;;6.65;5.18;;;8.40;45.30;;;;;;5105192;28;20089;-74
2022/03/08 11:31:16;;;;;;;8.48;5.30;;;8.50;45.90;;;;;;5087958;28;20036;-74
2022/03/08 11:34:01;;;;;;;7.88;5.28;;;8.50;44.60;;;;;;5091228;28;20104;-72
2022/03/08 11:36:35;;;;;;;8.38;4.97;;;8.60;44.00;;;;;;5075209;28;20101;-72
2022/03/08 11:39:23;;;;;;;9.70;5.07;;;8.60;44.10;;;;;;5093923;28;20047;-72
2022/03/08 11:41:56;;;;;;;8.32;5.40;;;8.70;44.40;;;;;;5102228;28;20078;-72
2022/03/08 11:44:31;;;;;;;7.32;5.10;;;8.80;44.60;;;;;;5088218;28;20100;-72
2022/03/08 11:46:58;;;;;;;;;;;8.90;43.70;;;;;;5092605;28;20549;-72
2022/03/08 11:49:51;;;;;;;6.00;4.53;;;8.90;42.90;;;;;;5104707;28;19938;-72
2022/03/08 11:52:24;;;;;;;6.70;4.60;;;8.90;43.80;;;;;;5127465;27;20088;-72
2022/03/08 11:55:03;;;;;;;7.38;4.95;;;8.90;42.60;;;;;;5083951;28;20052;-72
2022/03/08 11:57:46;;;;;;;6.47;4.40;;;9.00;42.70;;;;;;5084774;28;20039;-72
2022/03/08 12:00:27;;;;;;;7.43;4.70;;;9.10;42.80;;;;;;5126471;27;20032;-72
2022/03/08 12:02:56;;;;;;;6.82;5.07;;;9.10;42.20;;;;;;5088387;27;20510;-72
2022/03/08 12:05:42;;;;;;;5.93;4.75;;;9.10;41.40;;;;;;5089218;28;20475;-74
2022/03/08 12:08:29;;;;;;;6.30;4.80;;;9.10;42.70;;;;;;5126695;27;20043;-74
2022/03/08 12:11:03;;;;;;;6.88;4.93;;;9.20;42.80;;;;;;5109298;28;20159;-74
2022/03/08 12:13:31;;;;;;;8.25;5.60;;;9.30;43.20;;;;;;5090659;28;20118;-74
2022/03/08 12:16:08;;;;;;;7.32;5.20;;;9.30;42.20;;;;;;5087235;28;20136;-74
2022/03/08 12:18:42;;;;;;;6.38;4.53;;;9.30;42.40;;;;;;5092563;27;20104;-74
2022/03/08 12:21:14;;;;;;;10.10;4.85;;;9.40;42.00;;;;;;5126173;27;20123;-75
2022/03/08 12:24:08;;;;;;;7.50;4.63;;;9.40;41.70;;;;;;5109821;28;20047;-72
2022/03/08 12:26:34;;;;;;;6.78;5.03;;;9.50;42.20;;;;;;5077093;28;20043;-73
2022/03/08 12:29:09;;;;;;;7.43;4.80;;;9.50;42.80;;;;;;5105659;28;20055;-73
2022/03/08 12:32:06;;;;;;;10.23;5.10;;;9.60;43.00;;;;;;5090779;28;20127;-73
2022/03/08 12:34:39;;;;;;;4.85;3.70;;;9.70;40.80;;;;;;5110389;28;20044;-74
2022/03/08 12:37:17;;;;;;;6.47;3.97;;;9.70;40.20;;;;;;5109798;27;20091;-74
2022/03/08 12:40:05;;;;;;;6.65;4.30;;;9.80;39.90;;;;;;5078133;28;20503;-72
2022/03/08 12:42:35;;;;;;;7.93;4.68;;;9.70;40.10;;;;;;5126678;27;20039;-74